sensor_id;sensor_type;location;lat;lon;timestamp;P1;durP1;ratioP1;P2;durP2;ratioP2
13609;SDS011;6876;50.788;4.940;2022-09-27T00:01:10;1999.90;;;999.90;;
13609;SDS011;6876;50.788;4.940;2022-09-27T00:03:59;1999.90;;;999.90;;
13609;SDS011;6876;50.788;4.940;2022-09-27T00:06:46;1999.90;;;999.90;;
13609;SDS011;6876;50.788;4.940;2022-09-27T00:09:33;1999.90;;;999.90;;
13609;SDS011;6876;50.788;4.940;2022-09-27T00:12:21;1999.90;;;999.90;;
13609;SDS011;6876;50.788;4.940;2022-09-27T00:15:09;1999.90;;;999.90;;
13609;SDS011;6876;50.788;4.940;2022-09-27T00:17:57;1999.90;;;999.90;;
13609;SDS011;6876;50.788;4.940;2022-09-27T00:20:44;1999.90;;;999.90;;
13609;SDS011;6876;50.788;4.940;2022-09-27T00:23:32;1999.90;;;999.90;;
13609;SDS011;6876;50.788;4.940;2022-09-27T00:26:19;1999.90;;;999.90;;
13609;SDS011;6876;50.788;4.940;2022-09-27T00:29:06;1999.90;;;999.90;;
13609;SDS011;6876;50.788;4.940;2022-09-27T00:31:56;1999.90;;;999.90;;
13609;SDS011;6876;50.788;4.940;2022-09-27T00:34:45;1999.90;;;999.90;;
13609;SDS011;6876;50.788;4.940;2022-09-27T00:37:32;1999.90;;;999.90;;
13609;SDS011;6876;50.788;4.940;2022-09-27T00:40:20;1999.90;;;999.90;;
13609;SDS011;6876;50.788;4.940;2022-09-27T00:43:15;1999.90;;;999.90;;
13609;SDS011;6876;50.788;4.940;2022-09-27T00:46:04;1999.90;;;999.90;;
13609;SDS011;6876;50.788;4.940;2022-09-27T00:48:57;1999.90;;;999.90;;
13609;SDS011;6876;50.788;4.940;2022-09-27T00:51:50;1999.90;;;999.90;;
13609;SDS011;6876;50.788;4.940;2022-09-27T00:54:41;1999.90;;;999.90;;
13609;SDS011;6876;50.788;4.940;2022-09-27T00:57:31;1999.90;;;999.90;;
13609;SDS011;6876;50.788;4.940;2022-09-27T01:00:19;1999.90;;;999.90;;
13609;SDS011;6876;50.788;4.940;2022-09-27T01:03:07;1999.90;;;999.90;;
13609;SDS011;6876;50.788;4.940;2022-09-27T01:05:59;1999.90;;;999.90;;
13609;SDS011;6876;50.788;4.940;2022-09-27T01:08:47;1999.90;;;999.90;;
13609;SDS011;6876;50.788;4.940;2022-09-27T01:11:37;1999.90;;;999.90;;
13609;SDS011;6876;50.788;4.940;2022-09-27T01:14:33;1999.90;;;999.90;;
13609;SDS011;6876;50.788;4.940;2022-09-27T01:17:39;1999.90;;;999.90;;
13609;SDS011;6876;50.788;4.940;2022-09-27T01:20:42;1999.90;;;999.90;;
13609;SDS011;6876;50.788;4.940;2022-09-27T01:24:00;1999.90;;;999.90;;
13609;SDS011;6876;50.788;4.940;2022-09-27T01:27:13;1999.90;;;999.90;;
13609;SDS011;6876;50.788;4.940;2022-09-27T01:30:26;1999.90;;;999.90;;
13609;SDS011;6876;50.788;4.940;2022-09-27T01:36:30;1999.90;;;999.90;;
13609;SDS011;6876;50.788;4.940;2022-09-27T01:39:30;1999.90;;;999.90;;
13609;SDS011;6876;50.788;4.940;2022-09-27T01:42:25;1999.90;;;999.90;;
13609;SDS011;6876;50.788;4.940;2022-09-27T01:45:17;1999.90;;;999.90;;
13609;SDS011;6876;50.788;4.940;2022-09-27T01:48:11;1999.90;;;999.90;;
13609;SDS011;6876;50.788;4.940;2022-09-27T01:51:02;1999.90;;;999.90;;
13609;SDS011;6876;50.788;4.940;2022-09-27T01:53:53;1999.90;;;999.90;;
13609;SDS011;6876;50.788;4.940;2022-09-27T01:56:45;1999.90;;;999.90;;
13609;SDS011;6876;50.788;4.940;2022-09-27T01:59:37;1999.90;;;999.90;;
13609;SDS011;6876;50.788;4.940;2022-09-27T02:02:29;1999.90;;;999.90;;
13609;SDS011;6876;50.788;4.940;2022-09-27T02:05:20;1999.90;;;999.90;;
13609;SDS011;6876;50.788;4.940;2022-09-27T02:08:12;1999.90;;;999.90;;
13609;SDS011;6876;50.788;4.940;2022-09-27T02:11:04;1999.90;;;999.90;;
13609;SDS011;6876;50.788;4.940;2022-09-27T02:13:57;1999.90;;;999.90;;
13609;SDS011;6876;50.788;4.940;2022-09-27T02:16:49;1999.90;;;999.90;;
13609;SDS011;6876;50.788;4.940;2022-09-27T02:19:39;1999.90;;;999.90;;
13609;SDS011;6876;50.788;4.940;2022-09-27T02:22:40;1999.90;;;999.90;;
13609;SDS011;6876;50.788;4.940;2022-09-27T02:25:33;1999.90;;;999.90;;
13609;SDS011;6876;50.788;4.940;2022-09-27T02:28:27;1999.90;;;999.90;;
13609;SDS011;6876;50.788;4.940;2022-09-27T02:31:19;1999.90;;;999.90;;
13609;SDS011;6876;50.788;4.940;2022-09-27T02:34:07;1999.90;;;999.90;;
13609;SDS011;6876;50.788;4.940;2022-09-27T02:36:58;1999.90;;;999.90;;
13609;SDS011;6876;50.788;4.940;2022-09-27T02:39:47;1999.90;;;999.90;;
13609;SDS011;6876;50.788;4.940;2022-09-27T02:42:34;1999.90;;;999.90;;
13609;SDS011;6876;50.788;4.940;2022-09-27T02:45:22;1999.90;;;999.90;;
13609;SDS011;6876;50.788;4.940;2022-09-27T02:48:15;1999.90;;;999.90;;
13609;SDS011;6876;50.788;4.940;2022-09-27T02:54:28;1999.90;;;999.90;;
13609;SDS011;6876;50.788;4.940;2022-09-27T02:57:29;1999.90;;;999.90;;
13609;SDS011;6876;50.788;4.940;2022-09-27T03:00:27;1999.90;;;999.90;;
13609;SDS011;6876;50.788;4.940;2022-09-27T03:03:20;1999.90;;;999.90;;
13609;SDS011;6876;50.788;4.940;2022-09-27T03:06:12;1604.43;;;999.90;;
13609;SDS011;6876;50.788;4.940;2022-09-27T03:09:02;1999.90;;;999.90;;
13609;SDS011;6876;50.788;4.940;2022-09-27T03:11:49;1999.90;;;999.90;;
13609;SDS011;6876;50.788;4.940;2022-09-27T03:14:39;1999.90;;;999.90;;
13609;SDS011;6876;50.788;4.940;2022-09-27T03:17:26;1999.90;;;999.90;;
13609;SDS011;6876;50.788;4.940;2022-09-27T03:20:13;1999.90;;;999.90;;
13609;SDS011;6876;50.788;4.940;2022-09-27T03:23:00;1999.90;;;999.90;;
13609;SDS011;6876;50.788;4.940;2022-09-27T03:25:48;1999.90;;;999.90;;
13609;SDS011;6876;50.788;4.940;2022-09-27T03:28:36;1999.90;;;999.90;;
13609;SDS011;6876;50.788;4.940;2022-09-27T03:31:25;1999.90;;;999.90;;
13609;SDS011;6876;50.788;4.940;2022-09-27T03:34:12;1999.90;;;999.90;;
13609;SDS011;6876;50.788;4.940;2022-09-27T03:36:59;1999.90;;;999.90;;
13609;SDS011;6876;50.788;4.940;2022-09-27T03:39:47;1999.90;;;999.90;;
13609;SDS011;6876;50.788;4.940;2022-09-27T03:42:34;1999.90;;;999.90;;
13609;SDS011;6876;50.788;4.940;2022-09-27T03:45:22;1999.90;;;999.90;;
13609;SDS011;6876;50.788;4.940;2022-09-27T03:48:10;1999.90;;;999.90;;
13609;SDS011;6876;50.788;4.940;2022-09-27T03:50:57;1999.90;;;999.90;;
13609;SDS011;6876;50.788;4.940;2022-09-27T03:53:45;1999.90;;;999.90;;
13609;SDS011;6876;50.788;4.940;2022-09-27T03:56:32;1999.90;;;999.90;;
13609;SDS011;6876;50.788;4.940;2022-09-27T03:59:19;1999.90;;;999.90;;
13609;SDS011;6876;50.788;4.940;2022-09-27T04:02:06;1999.90;;;999.90;;
13609;SDS011;6876;50.788;4.940;2022-09-27T04:04:55;1999.90;;;999.90;;
13609;SDS011;6876;50.788;4.940;2022-09-27T04:07:44;1999.90;;;999.90;;
13609;SDS011;6876;50.788;4.940;2022-09-27T04:10:32;1999.90;;;999.90;;
13609;SDS011;6876;50.788;4.940;2022-09-27T04:13:21;1999.90;;;999.90;;
13609;SDS011;6876;50.788;4.940;2022-09-27T04:16:08;1999.90;;;999.90;;
13609;SDS011;6876;50.788;4.940;2022-09-27T04:18:55;1999.90;;;999.90;;
13609;SDS011;6876;50.788;4.940;2022-09-27T04:21:44;1999.90;;;999.90;;
13609;SDS011;6876;50.788;4.940;2022-09-27T04:24:31;1999.90;;;999.90;;
13609;SDS011;6876;50.788;4.940;2022-09-27T04:27:19;1999.90;;;999.90;;
13609;SDS011;6876;50.788;4.940;2022-09-27T04:30:07;1999.90;;;999.90;;
13609;SDS011;6876;50.788;4.940;2022-09-27T04:32:56;1999.90;;;999.90;;
13609;SDS011;6876;50.788;4.940;2022-09-27T04:35:43;1999.90;;;999.90;;
13609;SDS011;6876;50.788;4.940;2022-09-27T04:38:49;1999.90;;;999.90;;
13609;SDS011;6876;50.788;4.940;2022-09-27T04:41:36;1999.90;;;999.90;;
13609;SDS011;6876;50.788;4.940;2022-09-27T04:44:24;1999.90;;;999.90;;
13609;SDS011;6876;50.788;4.940;2022-09-27T04:47:11;1999.90;;;999.90;;
13609;SDS011;6876;50.788;4.940;2022-09-27T04:49:58;1999.90;;;999.90;;
13609;SDS011;6876;50.788;4.940;2022-09-27T04:52:48;1999.90;;;999.90;;
13609;SDS011;6876;50.788;4.940;2022-09-27T04:55:38;1999.90;;;999.90;;
13609;SDS011;6876;50.788;4.940;2022-09-27T04:58:25;1999.90;;;999.90;;
13609;SDS011;6876;50.788;4.940;2022-09-27T05:01:12;1999.90;;;999.90;;
13609;SDS011;6876;50.788;4.940;2022-09-27T05:04:00;1999.90;;;999.90;;
13609;SDS011;6876;50.788;4.940;2022-09-27T05:06:47;1999.90;;;999.90;;
13609;SDS011;6876;50.788;4.940;2022-09-27T05:09:35;1999.90;;;999.90;;
13609;SDS011;6876;50.788;4.940;2022-09-27T05:12:23;1999.90;;;999.90;;
13609;SDS011;6876;50.788;4.940;2022-09-27T05:15:12;1999.90;;;999.90;;
13609;SDS011;6876;50.788;4.940;2022-09-27T05:17:59;1999.90;;;999.90;;
13609;SDS011;6876;50.788;4.940;2022-09-27T05:20:46;1999.90;;;999.90;;
13609;SDS011;6876;50.788;4.940;2022-09-27T05:23:33;1999.90;;;999.90;;
13609;SDS011;6876;50.788;4.940;2022-09-27T05:26:21;1999.90;;;999.90;;
13609;SDS011;6876;50.788;4.940;2022-09-27T05:29:10;1999.90;;;999.90;;
13609;SDS011;6876;50.788;4.940;2022-09-27T05:31:57;1999.90;;;999.90;;
13609;SDS011;6876;50.788;4.940;2022-09-27T05:34:44;1999.90;;;999.90;;
13609;SDS011;6876;50.788;4.940;2022-09-27T05:37:31;1999.90;;;999.90;;
13609;SDS011;6876;50.788;4.940;2022-09-27T05:40:19;1999.90;;;999.90;;
13609;SDS011;6876;50.788;4.940;2022-09-27T05:43:08;1999.90;;;999.90;;
13609;SDS011;6876;50.788;4.940;2022-09-27T05:45:57;1999.90;;;999.90;;
13609;SDS011;6876;50.788;4.940;2022-09-27T05:48:45;1999.90;;;999.90;;
13609;SDS011;6876;50.788;4.940;2022-09-27T05:51:32;1999.90;;;999.90;;
13609;SDS011;6876;50.788;4.940;2022-09-27T05:54:20;1999.90;;;999.90;;
13609;SDS011;6876;50.788;4.940;2022-09-27T05:57:07;1999.90;;;999.90;;
13609;SDS011;6876;50.788;4.940;2022-09-27T05:59:54;1999.90;;;999.90;;
13609;SDS011;6876;50.788;4.940;2022-09-27T06:02:43;1999.90;;;999.90;;
13609;SDS011;6876;50.788;4.940;2022-09-27T06:05:33;1999.90;;;999.90;;
13609;SDS011;6876;50.788;4.940;2022-09-27T06:08:24;1999.90;;;999.90;;
13609;SDS011;6876;50.788;4.940;2022-09-27T06:11:11;1999.90;;;999.90;;
13609;SDS011;6876;50.788;4.940;2022-09-27T06:13:59;1999.90;;;999.90;;
13609;SDS011;6876;50.788;4.940;2022-09-27T06:16:46;1999.90;;;999.90;;
13609;SDS011;6876;50.788;4.940;2022-09-27T06:19:35;1999.90;;;999.90;;
13609;SDS011;6876;50.788;4.940;2022-09-27T06:22:22;1999.90;;;999.90;;
13609;SDS011;6876;50.788;4.940;2022-09-27T06:25:09;1999.90;;;999.90;;
13609;SDS011;6876;50.788;4.940;2022-09-27T06:27:56;1999.90;;;999.90;;
13609;SDS011;6876;50.788;4.940;2022-09-27T06:30:44;1999.90;;;999.90;;
13609;SDS011;6876;50.788;4.940;2022-09-27T06:33:32;1999.90;;;999.90;;
13609;SDS011;6876;50.788;4.940;2022-09-27T06:36:21;1999.90;;;999.90;;
13609;SDS011;6876;50.788;4.940;2022-09-27T06:39:09;1999.90;;;999.90;;
13609;SDS011;6876;50.788;4.940;2022-09-27T06:41:56;1999.90;;;999.90;;
13609;SDS011;6876;50.788;4.940;2022-09-27T06:44:44;1999.90;;;999.90;;
13609;SDS011;6876;50.788;4.940;2022-09-27T06:47:34;1999.90;;;999.90;;
13609;SDS011;6876;50.788;4.940;2022-09-27T06:50:21;1999.90;;;999.90;;
13609;SDS011;6876;50.788;4.940;2022-09-27T06:53:10;1999.90;;;999.90;;
13609;SDS011;6876;50.788;4.940;2022-09-27T06:55:59;1999.90;;;999.90;;
13609;SDS011;6876;50.788;4.940;2022-09-27T06:58:46;1999.90;;;999.90;;
13609;SDS011;6876;50.788;4.940;2022-09-27T07:01:51;1999.90;;;999.90;;
13609;SDS011;6876;50.788;4.940;2022-09-27T07:04:38;1999.90;;;999.90;;
13609;SDS011;6876;50.788;4.940;2022-09-27T07:07:27;1999.90;;;999.90;;
13609;SDS011;6876;50.788;4.940;2022-09-27T07:10:15;1999.90;;;999.90;;
13609;SDS011;6876;50.788;4.940;2022-09-27T07:13:03;1999.90;;;999.90;;
13609;SDS011;6876;50.788;4.940;2022-09-27T07:15:52;1999.90;;;999.90;;
13609;SDS011;6876;50.788;4.940;2022-09-27T07:18:39;1999.90;;;999.90;;
13609;SDS011;6876;50.788;4.940;2022-09-27T07:21:27;1999.90;;;999.90;;
13609;SDS011;6876;50.788;4.940;2022-09-27T07:24:14;1999.90;;;999.90;;
13609;SDS011;6876;50.788;4.940;2022-09-27T07:27:03;1999.90;;;999.90;;
13609;SDS011;6876;50.788;4.940;2022-09-27T07:29:50;1999.90;;;999.90;;
13609;SDS011;6876;50.788;4.940;2022-09-27T07:32:38;1999.90;;;999.90;;
13609;SDS011;6876;50.788;4.940;2022-09-27T07:35:26;1999.90;;;999.90;;
13609;SDS011;6876;50.788;4.940;2022-09-27T07:38:14;1999.90;;;999.90;;
13609;SDS011;6876;50.788;4.940;2022-09-27T07:41:04;1999.90;;;999.90;;
13609;SDS011;6876;50.788;4.940;2022-09-27T07:43:54;1999.90;;;999.90;;
13609;SDS011;6876;50.788;4.940;2022-09-27T07:46:41;1999.90;;;999.90;;
13609;SDS011;6876;50.788;4.940;2022-09-27T07:49:28;1999.90;;;999.90;;
13609;SDS011;6876;50.788;4.940;2022-09-27T07:52:16;1999.90;;;999.90;;
13609;SDS011;6876;50.788;4.940;2022-09-27T07:55:04;1999.90;;;999.90;;
13609;SDS011;6876;50.788;4.940;2022-09-27T07:58:00;1999.90;;;999.90;;
13609;SDS011;6876;50.788;4.940;2022-09-27T08:00:50;1999.90;;;999.90;;
13609;SDS011;6876;50.788;4.940;2022-09-27T08:03:41;1491.30;;;999.90;;
13609;SDS011;6876;50.788;4.940;2022-09-27T08:06:28;1247.73;;;999.90;;
13609;SDS011;6876;50.788;4.940;2022-09-27T08:09:15;1240.17;;;999.90;;
13609;SDS011;6876;50.788;4.940;2022-09-27T08:12:03;1246.13;;;999.90;;
13609;SDS011;6876;50.788;4.940;2022-09-27T08:14:50;1257.83;;;999.90;;
13609;SDS011;6876;50.788;4.940;2022-09-27T08:17:38;1234.37;;;999.90;;
13609;SDS011;6876;50.788;4.940;2022-09-27T08:20:26;1199.80;;;999.90;;
13609;SDS011;6876;50.788;4.940;2022-09-27T08:23:13;1207.73;;;999.90;;
13609;SDS011;6876;50.788;4.940;2022-09-27T08:26:00;1176.03;;;999.90;;
13609;SDS011;6876;50.788;4.940;2022-09-27T08:28:48;1230.30;;;999.90;;
13609;SDS011;6876;50.788;4.940;2022-09-27T08:31:35;1220.00;;;999.90;;
13609;SDS011;6876;50.788;4.940;2022-09-27T08:34:23;1161.63;;;999.90;;
13609;SDS011;6876;50.788;4.940;2022-09-27T08:37:12;1163.47;;;999.90;;
13609;SDS011;6876;50.788;4.940;2022-09-27T08:40:00;1100.70;;;997.83;;
13609;SDS011;6876;50.788;4.940;2022-09-27T08:42:48;1144.67;;;999.90;;
13609;SDS011;6876;50.788;4.940;2022-09-27T08:45:49;1086.73;;;992.07;;
13609;SDS011;6876;50.788;4.940;2022-09-27T08:48:53;1008.07;;;929.67;;
13609;SDS011;6876;50.788;4.940;2022-09-27T08:51:48;1040.20;;;958.50;;
13609;SDS011;6876;50.788;4.940;2022-09-27T08:54:38;1001.73;;;922.10;;
13609;SDS011;6876;50.788;4.940;2022-09-27T08:57:26;974.33;;;895.07;;
13609;SDS011;6876;50.788;4.940;2022-09-27T09:00:13;994.57;;;913.77;;
13609;SDS011;6876;50.788;4.940;2022-09-27T09:03:01;1080.20;;;986.00;;
13609;SDS011;6876;50.788;4.940;2022-09-27T09:05:51;1105.83;;;997.10;;
13609;SDS011;6876;50.788;4.940;2022-09-27T09:09:02;1107.90;;;996.93;;
13609;SDS011;6876;50.788;4.940;2022-09-27T09:11:59;1055.60;;;967.23;;
13609;SDS011;6876;50.788;4.940;2022-09-27T09:15:14;1025.37;;;942.23;;
13609;SDS011;6876;50.788;4.940;2022-09-27T09:18:20;1023.20;;;941.47;;
13609;SDS011;6876;50.788;4.940;2022-09-27T09:21:16;1035.60;;;950.27;;
13609;SDS011;6876;50.788;4.940;2022-09-27T09:24:19;1032.43;;;949.77;;
13609;SDS011;6876;50.788;4.940;2022-09-27T09:27:29;1072.37;;;983.07;;
13609;SDS011;6876;50.788;4.940;2022-09-27T09:30:27;1086.57;;;991.97;;
13609;SDS011;6876;50.788;4.940;2022-09-27T09:33:22;1176.33;;;999.90;;
13609;SDS011;6876;50.788;4.940;2022-09-27T09:36:16;1157.07;;;999.90;;
13609;SDS011;6876;50.788;4.940;2022-09-27T09:39:13;1169.67;;;999.90;;
13609;SDS011;6876;50.788;4.940;2022-09-27T09:42:06;1168.70;;;999.90;;
13609;SDS011;6876;50.788;4.940;2022-09-27T09:44:57;1164.53;;;999.90;;
13609;SDS011;6876;50.788;4.940;2022-09-27T09:47:50;1174.73;;;999.90;;
13609;SDS011;6876;50.788;4.940;2022-09-27T09:50:43;1166.33;;;999.90;;
13609;SDS011;6876;50.788;4.940;2022-09-27T09:53:35;1144.37;;;999.90;;
13609;SDS011;6876;50.788;4.940;2022-09-27T09:56:28;1113.63;;;999.90;;
13609;SDS011;6876;50.788;4.940;2022-09-27T09:59:22;1128.20;;;999.90;;
13609;SDS011;6876;50.788;4.940;2022-09-27T10:02:20;1154.27;;;999.90;;
13609;SDS011;6876;50.788;4.940;2022-09-27T10:05:16;1151.47;;;999.90;;
13609;SDS011;6876;50.788;4.940;2022-09-27T10:08:06;1164.77;;;999.90;;
13609;SDS011;6876;50.788;4.940;2022-09-27T10:11:01;1235.00;;;999.90;;
13609;SDS011;6876;50.788;4.940;2022-09-27T10:13:48;1209.57;;;999.90;;
13609;SDS011;6876;50.788;4.940;2022-09-27T10:16:37;1234.60;;;999.90;;
13609;SDS011;6876;50.788;4.940;2022-09-27T10:19:28;1212.57;;;999.90;;
13609;SDS011;6876;50.788;4.940;2022-09-27T10:22:18;1219.07;;;999.90;;
13609;SDS011;6876;50.788;4.940;2022-09-27T10:25:10;1164.47;;;999.90;;
13609;SDS011;6876;50.788;4.940;2022-09-27T10:27:58;1180.73;;;999.90;;
13609;SDS011;6876;50.788;4.940;2022-09-27T10:30:47;1162.80;;;999.90;;
13609;SDS011;6876;50.788;4.940;2022-09-27T10:33:52;1187.23;;;999.90;;
13609;SDS011;6876;50.788;4.940;2022-09-27T10:36:41;1121.47;;;999.90;;
13609;SDS011;6876;50.788;4.940;2022-09-27T10:39:28;1147.43;;;999.90;;
13609;SDS011;6876;50.788;4.940;2022-09-27T10:42:22;1121.97;;;999.90;;
13609;SDS011;6876;50.788;4.940;2022-09-27T10:48:24;1112.37;;;999.90;;
13609;SDS011;6876;50.788;4.940;2022-09-27T10:51:22;1120.47;;;999.90;;
13609;SDS011;6876;50.788;4.940;2022-09-27T10:54:17;1074.10;;;983.00;;
13609;SDS011;6876;50.788;4.940;2022-09-27T10:57:14;1102.60;;;998.50;;
13609;SDS011;6876;50.788;4.940;2022-09-27T11:00:05;1097.97;;;997.33;;
13609;SDS011;6876;50.788;4.940;2022-09-27T11:03:11;1128.77;;;999.90;;
13609;SDS011;6876;50.788;4.940;2022-09-27T11:06:01;1148.20;;;999.90;;
13609;SDS011;6876;50.788;4.940;2022-09-27T11:09:14;1161.37;;;999.90;;
13609;SDS011;6876;50.788;4.940;2022-09-27T11:12:05;1179.03;;;999.90;;
13609;SDS011;6876;50.788;4.940;2022-09-27T11:14:55;1191.40;;;999.90;;
13609;SDS011;6876;50.788;4.940;2022-09-27T11:17:48;1123.80;;;999.90;;
13609;SDS011;6876;50.788;4.940;2022-09-27T11:20:43;931.87;;;863.83;;
13609;SDS011;6876;50.788;4.940;2022-09-27T11:23:40;931.30;;;864.83;;
13609;SDS011;6876;50.788;4.940;2022-09-27T11:26:45;948.20;;;877.03;;
13609;SDS011;6876;50.788;4.940;2022-09-27T11:29:45;981.27;;;905.90;;
13609;SDS011;6876;50.788;4.940;2022-09-27T11:35:57;966.67;;;895.63;;
13609;SDS011;6876;50.788;4.940;2022-09-27T11:38:52;1020.63;;;938.63;;
13609;SDS011;6876;50.788;4.940;2022-09-27T11:41:53;1075.83;;;982.67;;
13609;SDS011;6876;50.788;4.940;2022-09-27T11:44:53;997.73;;;923.60;;
13609;SDS011;6876;50.788;4.940;2022-09-27T11:48:00;978.73;;;908.00;;
13609;SDS011;6876;50.788;4.940;2022-09-27T11:51:02;1038.43;;;958.77;;
13609;SDS011;6876;50.788;4.940;2022-09-27T11:54:05;976.23;;;904.13;;
13609;SDS011;6876;50.788;4.940;2022-09-27T11:57:05;1007.23;;;931.93;;
13609;SDS011;6876;50.788;4.940;2022-09-27T12:00:07;1017.93;;;941.03;;
13609;SDS011;6876;50.788;4.940;2022-09-27T12:06:19;1000.43;;;925.17;;
13609;SDS011;6876;50.788;4.940;2022-09-27T12:09:11;1000.33;;;922.47;;
13609;SDS011;6876;50.788;4.940;2022-09-27T12:12:08;989.90;;;916.93;;
13609;SDS011;6876;50.788;4.940;2022-09-27T12:14:59;1005.03;;;930.53;;
13609;SDS011;6876;50.788;4.940;2022-09-27T12:17:49;1034.67;;;954.23;;
13609;SDS011;6876;50.788;4.940;2022-09-27T12:20:40;1001.23;;;926.37;;
13609;SDS011;6876;50.788;4.940;2022-09-27T12:23:32;978.63;;;906.83;;
13609;SDS011;6876;50.788;4.940;2022-09-27T12:26:26;953.00;;;884.87;;
13609;SDS011;6876;50.788;4.940;2022-09-27T12:29:19;884.53;;;823.83;;
13609;SDS011;6876;50.788;4.940;2022-09-27T12:32:12;897.70;;;836.07;;
13609;SDS011;6876;50.788;4.940;2022-09-27T12:35:04;906.77;;;844.30;;
13609;SDS011;6876;50.788;4.940;2022-09-27T12:37:59;984.63;;;912.13;;
13609;SDS011;6876;50.788;4.940;2022-09-27T12:40:52;899.53;;;838.73;;
13609;SDS011;6876;50.788;4.940;2022-09-27T12:43:43;955.97;;;872.20;;
13609;SDS011;6876;50.788;4.940;2022-09-27T12:46:35;902.37;;;839.60;;
13609;SDS011;6876;50.788;4.940;2022-09-27T12:49:35;894.30;;;834.33;;
13609;SDS011;6876;50.788;4.940;2022-09-27T12:52:32;851.47;;;795.20;;
13609;SDS011;6876;50.788;4.940;2022-09-27T12:59:19;689.77;;;648.37;;
13609;SDS011;6876;50.788;4.940;2022-09-27T13:02:28;720.40;;;675.97;;
13609;SDS011;6876;50.788;4.940;2022-09-27T13:05:43;641.03;;;604.13;;
13609;SDS011;6876;50.788;4.940;2022-09-27T13:09:00;633.00;;;596.73;;
13609;SDS011;6876;50.788;4.940;2022-09-27T13:12:05;633.27;;;597.47;;
13609;SDS011;6876;50.788;4.940;2022-09-27T13:14:57;538.10;;;509.23;;
13609;SDS011;6876;50.788;4.940;2022-09-27T13:17:48;670.83;;;628.40;;
13609;SDS011;6876;50.788;4.940;2022-09-27T13:20:41;599.20;;;565.60;;
13609;SDS011;6876;50.788;4.940;2022-09-27T13:26:49;389.07;;;369.67;;
13609;SDS011;6876;50.788;4.940;2022-09-27T13:29:36;307.20;;;292.27;;
13609;SDS011;6876;50.788;4.940;2022-09-27T13:32:24;178.03;;;169.43;;
13609;SDS011;6876;50.788;4.940;2022-09-27T13:35:21;74.70;;;70.90;;
13609;SDS011;6876;50.788;4.940;2022-09-27T13:38:17;165.67;;;157.93;;
13609;SDS011;6876;50.788;4.940;2022-09-27T13:41:14;506.67;;;479.47;;
13609;SDS011;6876;50.788;4.940;2022-09-27T13:44:03;662.00;;;623.47;;
13609;SDS011;6876;50.788;4.940;2022-09-27T13:46:59;790.07;;;738.53;;
13609;SDS011;6876;50.788;4.940;2022-09-27T13:49:49;788.20;;;736.73;;
13609;SDS011;6876;50.788;4.940;2022-09-27T13:52:42;767.33;;;718.07;;
13609;SDS011;6876;50.788;4.940;2022-09-27T13:55:42;716.57;;;672.13;;
13609;SDS011;6876;50.788;4.940;2022-09-27T13:58:45;707.07;;;663.87;;
13609;SDS011;6876;50.788;4.940;2022-09-27T14:01:38;639.93;;;603.17;;
13609;SDS011;6876;50.788;4.940;2022-09-27T14:04:28;770.63;;;720.57;;
13609;SDS011;6876;50.788;4.940;2022-09-27T14:07:21;708.27;;;665.13;;
13609;SDS011;6876;50.788;4.940;2022-09-27T14:10:12;685.53;;;644.23;;
13609;SDS011;6876;50.788;4.940;2022-09-27T14:13:03;662.43;;;624.03;;
13609;SDS011;6876;50.788;4.940;2022-09-27T14:15:51;676.33;;;636.30;;
13609;SDS011;6876;50.788;4.940;2022-09-27T14:18:42;688.80;;;647.70;;
13609;SDS011;6876;50.788;4.940;2022-09-27T14:21:36;704.50;;;661.87;;
13609;SDS011;6876;50.788;4.940;2022-09-27T14:24:26;729.20;;;683.63;;
13609;SDS011;6876;50.788;4.940;2022-09-27T14:27:17;732.07;;;686.43;;
13609;SDS011;6876;50.788;4.940;2022-09-27T14:30:08;816.53;;;758.80;;
13609;SDS011;6876;50.788;4.940;2022-09-27T14:32:59;886.23;;;819.03;;
13609;SDS011;6876;50.788;4.940;2022-09-27T14:35:48;800.23;;;748.20;;
13609;SDS011;6876;50.788;4.940;2022-09-27T14:38:53;729.53;;;684.13;;
13609;SDS011;6876;50.788;4.940;2022-09-27T14:41:43;829.10;;;773.13;;
13609;SDS011;6876;50.788;4.940;2022-09-27T14:44:31;851.50;;;793.50;;
13609;SDS011;6876;50.788;4.940;2022-09-27T14:47:20;830.93;;;775.50;;
13609;SDS011;6876;50.788;4.940;2022-09-27T14:50:12;896.60;;;830.20;;
13609;SDS011;6876;50.788;4.940;2022-09-27T14:53:18;808.30;;;754.73;;
13609;SDS011;6876;50.788;4.940;2022-09-27T14:56:08;760.50;;;712.43;;
13609;SDS011;6876;50.788;4.940;2022-09-27T14:59:03;668.37;;;628.97;;
13609;SDS011;6876;50.788;4.940;2022-09-27T15:01:57;897.63;;;828.20;;
13609;SDS011;6876;50.788;4.940;2022-09-27T15:04:46;786.80;;;736.53;;
13609;SDS011;6876;50.788;4.940;2022-09-27T15:07:35;829.07;;;772.83;;
13609;SDS011;6876;50.788;4.940;2022-09-27T15:10:23;832.43;;;776.63;;
13609;SDS011;6876;50.788;4.940;2022-09-27T15:13:16;866.70;;;807.07;;
13609;SDS011;6876;50.788;4.940;2022-09-27T15:16:05;830.30;;;774.97;;
13609;SDS011;6876;50.788;4.940;2022-09-27T15:18:59;937.30;;;869.23;;
13609;SDS011;6876;50.788;4.940;2022-09-27T15:21:48;833.67;;;776.60;;
13609;SDS011;6876;50.788;4.940;2022-09-27T15:24:36;850.73;;;793.33;;
13609;SDS011;6876;50.788;4.940;2022-09-27T15:27:24;816.77;;;763.37;;
13609;SDS011;6876;50.788;4.940;2022-09-27T15:30:15;830.77;;;775.13;;
13609;SDS011;6876;50.788;4.940;2022-09-27T15:33:04;831.80;;;776.10;;
13609;SDS011;6876;50.788;4.940;2022-09-27T15:35:55;974.90;;;899.20;;
13609;SDS011;6876;50.788;4.940;2022-09-27T15:38:46;1007.17;;;925.67;;
13609;SDS011;6876;50.788;4.940;2022-09-27T15:41:58;995.23;;;914.23;;
13609;SDS011;6876;50.788;4.940;2022-09-27T15:44:47;1017.63;;;933.70;;
13609;SDS011;6876;50.788;4.940;2022-09-27T15:47:54;896.57;;;828.90;;
13609;SDS011;6876;50.788;4.940;2022-09-27T15:50:42;912.33;;;842.57;;
13609;SDS011;6876;50.788;4.940;2022-09-27T15:53:44;895.57;;;827.43;;
13609;SDS011;6876;50.788;4.940;2022-09-27T15:56:33;931.87;;;862.63;;
13609;SDS011;6876;50.788;4.940;2022-09-27T15:59:21;987.17;;;912.60;;
13609;SDS011;6876;50.788;4.940;2022-09-27T16:02:11;984.07;;;907.40;;
13609;SDS011;6876;50.788;4.940;2022-09-27T16:05:02;1033.87;;;950.90;;
13609;SDS011;6876;50.788;4.940;2022-09-27T16:07:49;1131.90;;;999.90;;
13609;SDS011;6876;50.788;4.940;2022-09-27T16:10:39;1026.03;;;942.53;;
13609;SDS011;6876;50.788;4.940;2022-09-27T16:13:29;1079.77;;;985.77;;
13609;SDS011;6876;50.788;4.940;2022-09-27T16:16:18;1108.20;;;999.53;;
13609;SDS011;6876;50.788;4.940;2022-09-27T16:19:06;1999.90;;;999.90;;
13609;SDS011;6876;50.788;4.940;2022-09-27T16:21:54;1094.00;;;996.70;;
13609;SDS011;6876;50.788;4.940;2022-09-27T16:24:41;1050.87;;;964.67;;
13609;SDS011;6876;50.788;4.940;2022-09-27T16:27:30;1050.77;;;965.50;;
13609;SDS011;6876;50.788;4.940;2022-09-27T16:30:17;1028.40;;;945.23;;
13609;SDS011;6876;50.788;4.940;2022-09-27T16:33:05;1031.97;;;948.63;;
13609;SDS011;6876;50.788;4.940;2022-09-27T16:35:52;1025.40;;;942.50;;
13609;SDS011;6876;50.788;4.940;2022-09-27T16:38:40;1035.40;;;949.87;;
13609;SDS011;6876;50.788;4.940;2022-09-27T16:41:28;1008.97;;;929.00;;